sensor_id;sensor_type;location;lat;lon;timestamp;P1;durP1;ratioP1;P2;durP2;ratioP2
73132;SDS011;61320;52.008;4.530;2022-11-20T00:01:09;25.65;;;24.73;;
73132;SDS011;61320;52.008;4.530;2022-11-20T00:03:40;25.16;;;24.48;;
73132;SDS011;61320;52.008;4.530;2022-11-20T00:06:09;24.99;;;24.13;;
73132;SDS011;61320;52.008;4.530;2022-11-20T00:08:37;23.78;;;23.15;;
73132;SDS011;61320;52.008;4.530;2022-11-20T00:11:06;25.24;;;24.56;;
73132;SDS011;61320;52.008;4.530;2022-11-20T00:13:33;24.60;;;24.07;;
73132;SDS011;61320;52.008;4.530;2022-11-20T00:15:59;25.16;;;24.25;;
73132;SDS011;61320;52.008;4.530;2022-11-20T00:18:27;25.46;;;24.52;;
73132;SDS011;61320;52.008;4.530;2022-11-20T00:20:59;24.30;;;23.59;;
73132;SDS011;61320;52.008;4.530;2022-11-20T00:23:28;25.54;;;24.60;;
73132;SDS011;61320;52.008;4.530;2022-11-20T00:25:54;23.88;;;23.06;;
73132;SDS011;61320;52.008;4.530;2022-11-20T00:28:19;24.73;;;23.99;;
73132;SDS011;61320;52.008;4.530;2022-11-20T00:30:45;24.93;;;24.04;;
73132;SDS011;61320;52.008;4.530;2022-11-20T00:33:10;25.12;;;24.41;;
73132;SDS011;61320;52.008;4.530;2022-11-20T00:35:36;25.02;;;24.21;;
73132;SDS011;61320;52.008;4.530;2022-11-20T00:38:01;25.03;;;24.09;;
73132;SDS011;61320;52.008;4.530;2022-11-20T00:40:27;23.75;;;23.11;;
73132;SDS011;61320;52.008;4.530;2022-11-20T00:42:52;23.61;;;22.88;;
73132;SDS011;61320;52.008;4.530;2022-11-20T00:45:18;24.55;;;23.61;;
73132;SDS011;61320;52.008;4.530;2022-11-20T00:47:43;23.87;;;23.31;;
73132;SDS011;61320;52.008;4.530;2022-11-20T00:50:08;24.63;;;23.68;;
73132;SDS011;61320;52.008;4.530;2022-11-20T00:52:34;23.93;;;23.13;;
73132;SDS011;61320;52.008;4.530;2022-11-20T00:54:59;23.98;;;23.12;;
73132;SDS011;61320;52.008;4.530;2022-11-20T00:57:25;23.17;;;22.37;;
73132;SDS011;61320;52.008;4.530;2022-11-20T00:59:50;24.46;;;23.63;;
73132;SDS011;61320;52.008;4.530;2022-11-20T01:02:16;23.94;;;23.19;;
73132;SDS011;61320;52.008;4.530;2022-11-20T01:04:42;22.88;;;22.45;;
73132;SDS011;61320;52.008;4.530;2022-11-20T01:07:07;23.36;;;22.49;;
73132;SDS011;61320;52.008;4.530;2022-11-20T01:09:33;23.67;;;22.82;;
73132;SDS011;61320;52.008;4.530;2022-11-20T01:11:58;23.08;;;22.71;;
73132;SDS011;61320;52.008;4.530;2022-11-20T01:14:27;23.82;;;23.12;;
73132;SDS011;61320;52.008;4.530;2022-11-20T01:16:52;23.56;;;22.70;;
73132;SDS011;61320;52.008;4.530;2022-11-20T01:19:19;23.59;;;22.94;;
73132;SDS011;61320;52.008;4.530;2022-11-20T01:21:51;23.87;;;22.94;;
73132;SDS011;61320;52.008;4.530;2022-11-20T01:24:18;25.04;;;24.15;;
73132;SDS011;61320;52.008;4.530;2022-11-20T01:26:47;25.55;;;24.51;;
73132;SDS011;61320;52.008;4.530;2022-11-20T01:29:22;24.58;;;23.66;;
73132;SDS011;61320;52.008;4.530;2022-11-20T01:31:49;23.94;;;22.90;;
73132;SDS011;61320;52.008;4.530;2022-11-20T01:34:16;24.48;;;23.48;;
73132;SDS011;61320;52.008;4.530;2022-11-20T01:36:43;23.91;;;23.06;;
73132;SDS011;61320;52.008;4.530;2022-11-20T01:39:12;23.81;;;23.16;;
73132;SDS011;61320;52.008;4.530;2022-11-20T01:41:44;23.55;;;23.01;;
73132;SDS011;61320;52.008;4.530;2022-11-20T01:47:59;24.65;;;24.07;;
73132;SDS011;61320;52.008;4.530;2022-11-20T01:50:27;23.78;;;22.94;;
73132;SDS011;61320;52.008;4.530;2022-11-20T01:53:08;23.67;;;22.85;;
73132;SDS011;61320;52.008;4.530;2022-11-20T01:55:43;23.39;;;22.59;;
73132;SDS011;61320;52.008;4.530;2022-11-20T01:58:14;23.60;;;22.73;;
73132;SDS011;61320;52.008;4.530;2022-11-20T02:00:41;24.05;;;23.06;;
73132;SDS011;61320;52.008;4.530;2022-11-20T02:03:09;23.07;;;22.29;;
73132;SDS011;61320;52.008;4.530;2022-11-20T02:05:47;22.37;;;21.59;;
73132;SDS011;61320;52.008;4.530;2022-11-20T02:08:20;22.63;;;21.81;;
73132;SDS011;61320;52.008;4.530;2022-11-20T02:10:48;23.07;;;22.26;;
73132;SDS011;61320;52.008;4.530;2022-11-20T02:13:13;23.16;;;22.21;;
73132;SDS011;61320;52.008;4.530;2022-11-20T02:15:57;22.74;;;22.04;;
73132;SDS011;61320;52.008;4.530;2022-11-20T02:18:23;22.19;;;21.46;;
73132;SDS011;61320;52.008;4.530;2022-11-20T02:20:54;22.59;;;22.06;;
73132;SDS011;61320;52.008;4.530;2022-11-20T02:23:51;22.60;;;21.74;;
73132;SDS011;61320;52.008;4.530;2022-11-20T02:26:18;23.23;;;22.28;;
73132;SDS011;61320;52.008;4.530;2022-11-20T02:28:48;22.40;;;21.63;;
73132;SDS011;61320;52.008;4.530;2022-11-20T02:31:14;22.67;;;21.77;;
73132;SDS011;61320;52.008;4.530;2022-11-20T02:33:40;23.11;;;22.17;;
73132;SDS011;61320;52.008;4.530;2022-11-20T02:36:06;22.67;;;22.01;;
73132;SDS011;61320;52.008;4.530;2022-11-20T02:38:39;23.07;;;22.07;;
73132;SDS011;61320;52.008;4.530;2022-11-20T02:41:07;22.47;;;21.56;;
73132;SDS011;61320;52.008;4.530;2022-11-20T02:43:33;22.33;;;21.68;;
73132;SDS011;61320;52.008;4.530;2022-11-20T02:45:58;22.82;;;22.04;;
73132;SDS011;61320;52.008;4.530;2022-11-20T02:48:24;21.28;;;20.79;;
73132;SDS011;61320;52.008;4.530;2022-11-20T02:50:49;22.24;;;21.63;;
73132;SDS011;61320;52.008;4.530;2022-11-20T02:53:14;22.81;;;21.99;;
73132;SDS011;61320;52.008;4.530;2022-11-20T02:55:40;21.95;;;21.19;;
73132;SDS011;61320;52.008;4.530;2022-11-20T02:58:05;22.09;;;21.45;;
73132;SDS011;61320;52.008;4.530;2022-11-20T03:00:34;23.09;;;22.24;;
73132;SDS011;61320;52.008;4.530;2022-11-20T03:03:00;22.30;;;21.83;;
73132;SDS011;61320;52.008;4.530;2022-11-20T03:05:26;23.68;;;22.80;;
73132;SDS011;61320;52.008;4.530;2022-11-20T03:07:52;22.27;;;21.81;;
73132;SDS011;61320;52.008;4.530;2022-11-20T03:10:17;23.53;;;22.64;;
73132;SDS011;61320;52.008;4.530;2022-11-20T03:12:42;23.53;;;22.89;;
73132;SDS011;61320;52.008;4.530;2022-11-20T03:15:08;24.59;;;23.90;;
73132;SDS011;61320;52.008;4.530;2022-11-20T03:17:34;24.79;;;24.09;;
73132;SDS011;61320;52.008;4.530;2022-11-20T03:20:00;25.02;;;23.98;;
73132;SDS011;61320;52.008;4.530;2022-11-20T03:22:25;24.28;;;23.38;;
73132;SDS011;61320;52.008;4.530;2022-11-20T03:24:53;26.05;;;25.02;;
73132;SDS011;61320;52.008;4.530;2022-11-20T03:27:19;27.05;;;26.08;;
73132;SDS011;61320;52.008;4.530;2022-11-20T03:29:45;25.83;;;24.95;;
73132;SDS011;61320;52.008;4.530;2022-11-20T03:32:10;25.78;;;24.92;;
73132;SDS011;61320;52.008;4.530;2022-11-20T03:34:36;25.63;;;24.85;;
73132;SDS011;61320;52.008;4.530;2022-11-20T03:37:01;25.39;;;24.44;;
73132;SDS011;61320;52.008;4.530;2022-11-20T03:39:26;25.34;;;24.45;;
73132;SDS011;61320;52.008;4.530;2022-11-20T03:41:52;25.92;;;24.91;;
73132;SDS011;61320;52.008;4.530;2022-11-20T03:44:17;26.14;;;25.33;;
73132;SDS011;61320;52.008;4.530;2022-11-20T03:46:46;26.54;;;25.65;;
73132;SDS011;61320;52.008;4.530;2022-11-20T03:49:12;26.39;;;25.43;;
73132;SDS011;61320;52.008;4.530;2022-11-20T03:51:37;26.59;;;25.42;;
73132;SDS011;61320;52.008;4.530;2022-11-20T03:54:04;25.55;;;24.69;;
73132;SDS011;61320;52.008;4.530;2022-11-20T03:56:32;26.58;;;25.57;;
73132;SDS011;61320;52.008;4.530;2022-11-20T03:59:00;26.10;;;25.21;;
73132;SDS011;61320;52.008;4.530;2022-11-20T04:01:30;26.08;;;25.12;;
73132;SDS011;61320;52.008;4.530;2022-11-20T04:03:58;26.88;;;25.70;;
73132;SDS011;61320;52.008;4.530;2022-11-20T04:06:27;25.83;;;25.06;;
73132;SDS011;61320;52.008;4.530;2022-11-20T04:08:56;26.27;;;25.36;;
73132;SDS011;61320;52.008;4.530;2022-11-20T04:11:24;25.55;;;24.72;;
73132;SDS011;61320;52.008;4.530;2022-11-20T04:13:52;25.50;;;24.45;;
73132;SDS011;61320;52.008;4.530;2022-11-20T04:16:30;25.09;;;24.30;;
73132;SDS011;61320;52.008;4.530;2022-11-20T04:18:59;24.93;;;24.07;;
73132;SDS011;61320;52.008;4.530;2022-11-20T04:21:26;25.46;;;24.57;;
73132;SDS011;61320;52.008;4.530;2022-11-20T04:23:52;26.72;;;25.65;;
73132;SDS011;61320;52.008;4.530;2022-11-20T04:26:19;27.86;;;26.56;;
73132;SDS011;61320;52.008;4.530;2022-11-20T04:28:52;27.52;;;26.40;;
73132;SDS011;61320;52.008;4.530;2022-11-20T04:31:22;26.32;;;25.59;;
73132;SDS011;61320;52.008;4.530;2022-11-20T04:33:50;26.66;;;25.65;;
73132;SDS011;61320;52.008;4.530;2022-11-20T04:36:23;26.77;;;25.66;;
73132;SDS011;61320;52.008;4.530;2022-11-20T04:38:58;26.53;;;25.65;;
73132;SDS011;61320;52.008;4.530;2022-11-20T04:41:26;27.76;;;26.42;;
73132;SDS011;61320;52.008;4.530;2022-11-20T04:43:55;26.59;;;25.53;;
73132;SDS011;61320;52.008;4.530;2022-11-20T04:46:25;25.56;;;24.72;;
73132;SDS011;61320;52.008;4.530;2022-11-20T04:48:51;24.89;;;24.13;;
73132;SDS011;61320;52.008;4.530;2022-11-20T04:51:17;25.37;;;24.49;;
73132;SDS011;61320;52.008;4.530;2022-11-20T04:53:43;26.47;;;25.41;;
73132;SDS011;61320;52.008;4.530;2022-11-20T04:56:09;27.28;;;26.17;;
73132;SDS011;61320;52.008;4.530;2022-11-20T04:58:37;26.57;;;25.37;;
73132;SDS011;61320;52.008;4.530;2022-11-20T05:01:04;25.61;;;24.81;;
73132;SDS011;61320;52.008;4.530;2022-11-20T05:03:32;25.85;;;25.11;;
73132;SDS011;61320;52.008;4.530;2022-11-20T05:06:01;26.58;;;25.80;;
73132;SDS011;61320;52.008;4.530;2022-11-20T05:08:27;27.38;;;26.18;;
73132;SDS011;61320;52.008;4.530;2022-11-20T05:10:53;26.84;;;25.75;;
73132;SDS011;61320;52.008;4.530;2022-11-20T05:13:19;26.88;;;25.85;;
73132;SDS011;61320;52.008;4.530;2022-11-20T05:15:44;27.74;;;26.68;;
73132;SDS011;61320;52.008;4.530;2022-11-20T05:18:10;27.33;;;26.50;;
73132;SDS011;61320;52.008;4.530;2022-11-20T05:20:35;26.77;;;25.75;;
73132;SDS011;61320;52.008;4.530;2022-11-20T05:23:01;26.82;;;25.81;;
73132;SDS011;61320;52.008;4.530;2022-11-20T05:25:27;26.90;;;25.68;;
73132;SDS011;61320;52.008;4.530;2022-11-20T05:27:53;26.65;;;25.68;;
73132;SDS011;61320;52.008;4.530;2022-11-20T05:30:19;27.67;;;26.51;;
73132;SDS011;61320;52.008;4.530;2022-11-20T05:32:44;26.75;;;25.84;;
73132;SDS011;61320;52.008;4.530;2022-11-20T05:35:10;27.11;;;25.82;;
73132;SDS011;61320;52.008;4.530;2022-11-20T05:37:35;28.35;;;27.15;;
73132;SDS011;61320;52.008;4.530;2022-11-20T05:40:01;28.17;;;27.10;;
73132;SDS011;61320;52.008;4.530;2022-11-20T05:42:26;28.30;;;27.10;;
73132;SDS011;61320;52.008;4.530;2022-11-20T05:44:56;27.60;;;26.93;;
73132;SDS011;61320;52.008;4.530;2022-11-20T05:47:26;27.11;;;26.39;;
73132;SDS011;61320;52.008;4.530;2022-11-20T05:49:52;27.55;;;26.51;;
73132;SDS011;61320;52.008;4.530;2022-11-20T05:52:18;27.23;;;26.22;;
73132;SDS011;61320;52.008;4.530;2022-11-20T05:54:43;27.91;;;26.76;;
73132;SDS011;61320;52.008;4.530;2022-11-20T05:57:09;27.98;;;26.90;;
73132;SDS011;61320;52.008;4.530;2022-11-20T05:59:34;28.09;;;26.99;;
73132;SDS011;61320;52.008;4.530;2022-11-20T06:02:00;27.54;;;26.23;;
73132;SDS011;61320;52.008;4.530;2022-11-20T06:04:25;28.22;;;27.05;;
73132;SDS011;61320;52.008;4.530;2022-11-20T06:06:51;28.14;;;27.18;;
73132;SDS011;61320;52.008;4.530;2022-11-20T06:09:16;28.40;;;27.65;;
73132;SDS011;61320;52.008;4.530;2022-11-20T06:11:42;28.02;;;27.28;;
73132;SDS011;61320;52.008;4.530;2022-11-20T06:14:07;28.77;;;27.76;;
73132;SDS011;61320;52.008;4.530;2022-11-20T06:16:33;28.06;;;27.06;;
73132;SDS011;61320;52.008;4.530;2022-11-20T06:18:58;27.69;;;26.67;;
73132;SDS011;61320;52.008;4.530;2022-11-20T06:21:24;27.52;;;26.53;;
73132;SDS011;61320;52.008;4.530;2022-11-20T06:23:50;26.33;;;25.41;;
73132;SDS011;61320;52.008;4.530;2022-11-20T06:26:21;26.44;;;25.42;;
73132;SDS011;61320;52.008;4.530;2022-11-20T06:28:49;26.31;;;25.24;;
73132;SDS011;61320;52.008;4.530;2022-11-20T06:31:17;26.60;;;25.53;;
73132;SDS011;61320;52.008;4.530;2022-11-20T06:33:45;26.67;;;25.62;;
73132;SDS011;61320;52.008;4.530;2022-11-20T06:36:12;27.10;;;26.06;;
73132;SDS011;61320;52.008;4.530;2022-11-20T06:38:40;27.25;;;26.24;;
73132;SDS011;61320;52.008;4.530;2022-11-20T06:41:06;26.15;;;25.59;;
73132;SDS011;61320;52.008;4.530;2022-11-20T06:43:35;25.96;;;25.03;;
73132;SDS011;61320;52.008;4.530;2022-11-20T06:46:00;26.17;;;25.17;;
73132;SDS011;61320;52.008;4.530;2022-11-20T06:48:26;25.41;;;24.50;;
73132;SDS011;61320;52.008;4.530;2022-11-20T06:50:53;25.65;;;24.96;;
73132;SDS011;61320;52.008;4.530;2022-11-20T06:53:18;26.60;;;26.05;;
73132;SDS011;61320;52.008;4.530;2022-11-20T06:55:44;29.50;;;28.37;;
73132;SDS011;61320;52.008;4.530;2022-11-20T06:58:12;29.31;;;28.20;;
73132;SDS011;61320;52.008;4.530;2022-11-20T07:00:39;28.06;;;27.10;;
73132;SDS011;61320;52.008;4.530;2022-11-20T07:03:05;29.28;;;27.96;;
73132;SDS011;61320;52.008;4.530;2022-11-20T07:05:32;27.40;;;26.61;;
73132;SDS011;61320;52.008;4.530;2022-11-20T07:07:58;26.04;;;25.41;;
73132;SDS011;61320;52.008;4.530;2022-11-20T07:10:27;26.35;;;25.66;;
73132;SDS011;61320;52.008;4.530;2022-11-20T07:12:53;26.77;;;25.80;;
73132;SDS011;61320;52.008;4.530;2022-11-20T07:15:19;27.26;;;26.19;;
73132;SDS011;61320;52.008;4.530;2022-11-20T07:17:46;27.07;;;26.11;;
73132;SDS011;61320;52.008;4.530;2022-11-20T07:20:12;27.35;;;26.36;;
73132;SDS011;61320;52.008;4.530;2022-11-20T07:22:39;26.76;;;25.65;;
73132;SDS011;61320;52.008;4.530;2022-11-20T07:25:05;28.30;;;27.16;;
73132;SDS011;61320;52.008;4.530;2022-11-20T07:27:31;28.17;;;26.98;;
73132;SDS011;61320;52.008;4.530;2022-11-20T07:29:57;26.99;;;25.87;;
73132;SDS011;61320;52.008;4.530;2022-11-20T07:32:22;27.19;;;26.04;;
73132;SDS011;61320;52.008;4.530;2022-11-20T07:34:48;27.90;;;26.70;;
73132;SDS011;61320;52.008;4.530;2022-11-20T07:37:14;27.14;;;26.12;;
73132;SDS011;61320;52.008;4.530;2022-11-20T07:39:40;27.18;;;26.49;;
73132;SDS011;61320;52.008;4.530;2022-11-20T07:42:06;26.93;;;26.02;;
73132;SDS011;61320;52.008;4.530;2022-11-20T07:44:32;27.60;;;26.65;;
73132;SDS011;61320;52.008;4.530;2022-11-20T07:46:58;28.33;;;27.29;;
73132;SDS011;61320;52.008;4.530;2022-11-20T07:49:23;28.51;;;27.40;;
73132;SDS011;61320;52.008;4.530;2022-11-20T07:51:52;26.32;;;25.76;;
73132;SDS011;61320;52.008;4.530;2022-11-20T07:54:20;27.32;;;26.58;;
73132;SDS011;61320;52.008;4.530;2022-11-20T07:56:47;29.55;;;28.38;;
73132;SDS011;61320;52.008;4.530;2022-11-20T07:59:18;27.08;;;26.43;;
73132;SDS011;61320;52.008;4.530;2022-11-20T08:01:44;26.35;;;25.40;;
73132;SDS011;61320;52.008;4.530;2022-11-20T08:04:10;26.05;;;25.33;;
73132;SDS011;61320;52.008;4.530;2022-11-20T08:06:36;27.72;;;26.49;;
73132;SDS011;61320;52.008;4.530;2022-11-20T08:09:02;27.67;;;26.69;;
73132;SDS011;61320;52.008;4.530;2022-11-20T08:11:27;27.84;;;26.80;;
73132;SDS011;61320;52.008;4.530;2022-11-20T08:14:12;28.37;;;27.10;;
73132;SDS011;61320;52.008;4.530;2022-11-20T08:16:38;27.99;;;26.80;;
73132;SDS011;61320;52.008;4.530;2022-11-20T08:19:08;29.09;;;27.93;;
73132;SDS011;61320;52.008;4.530;2022-11-20T08:21:33;27.87;;;27.01;;
73132;SDS011;61320;52.008;4.530;2022-11-20T08:23:59;29.37;;;28.25;;
73132;SDS011;61320;52.008;4.530;2022-11-20T08:26:25;28.90;;;28.15;;
73132;SDS011;61320;52.008;4.530;2022-11-20T08:28:54;30.09;;;28.70;;
73132;SDS011;61320;52.008;4.530;2022-11-20T08:31:24;28.61;;;28.05;;
73132;SDS011;61320;52.008;4.530;2022-11-20T08:33:51;29.90;;;28.99;;
73132;SDS011;61320;52.008;4.530;2022-11-20T08:36:18;30.33;;;29.49;;
73132;SDS011;61320;52.008;4.530;2022-11-20T08:38:47;31.80;;;30.63;;
73132;SDS011;61320;52.008;4.530;2022-11-20T08:41:13;30.62;;;29.77;;
73132;SDS011;61320;52.008;4.530;2022-11-20T08:44:00;30.85;;;29.66;;
73132;SDS011;61320;52.008;4.530;2022-11-20T08:46:32;31.31;;;30.11;;
73132;SDS011;61320;52.008;4.530;2022-11-20T08:49:06;31.51;;;30.57;;
73132;SDS011;61320;52.008;4.530;2022-11-20T08:51:34;31.34;;;30.24;;
73132;SDS011;61320;52.008;4.530;2022-11-20T08:54:01;30.30;;;29.28;;
73132;SDS011;61320;52.008;4.530;2022-11-20T08:56:27;30.20;;;29.41;;
73132;SDS011;61320;52.008;4.530;2022-11-20T08:58:52;29.48;;;28.85;;
73132;SDS011;61320;52.008;4.530;2022-11-20T09:01:18;29.84;;;29.37;;
73132;SDS011;61320;52.008;4.530;2022-11-20T09:03:45;29.02;;;28.63;;
73132;SDS011;61320;52.008;4.530;2022-11-20T09:06:11;30.49;;;29.51;;
73132;SDS011;61320;52.008;4.530;2022-11-20T09:08:37;31.02;;;30.00;;
73132;SDS011;61320;52.008;4.530;2022-11-20T09:11:03;31.27;;;30.20;;
73132;SDS011;61320;52.008;4.530;2022-11-20T09:13:29;32.21;;;30.99;;
73132;SDS011;61320;52.008;4.530;2022-11-20T09:15:57;31.04;;;29.99;;
73132;SDS011;61320;52.008;4.530;2022-11-20T09:18:24;31.49;;;30.17;;
73132;SDS011;61320;52.008;4.530;2022-11-20T09:20:51;31.92;;;30.67;;
73132;SDS011;61320;52.008;4.530;2022-11-20T09:23:20;32.14;;;30.69;;
73132;SDS011;61320;52.008;4.530;2022-11-20T09:25:46;30.73;;;29.75;;
73132;SDS011;61320;52.008;4.530;2022-11-20T09:28:14;30.72;;;29.75;;
73132;SDS011;61320;52.008;4.530;2022-11-20T09:30:39;31.46;;;30.04;;
73132;SDS011;61320;52.008;4.530;2022-11-20T09:33:05;32.36;;;31.01;;
73132;SDS011;61320;52.008;4.530;2022-11-20T09:35:31;31.48;;;30.51;;
73132;SDS011;61320;52.008;4.530;2022-11-20T09:37:57;31.44;;;30.33;;
73132;SDS011;61320;52.008;4.530;2022-11-20T09:40:24;31.29;;;30.61;;
73132;SDS011;61320;52.008;4.530;2022-11-20T09:45:46;30.50;;;30.03;;
73132;SDS011;61320;52.008;4.530;2022-11-20T09:56:43;31.84;;;31.36;;
73132;SDS011;61320;52.008;4.530;2022-11-20T09:59:16;32.59;;;31.76;;
73132;SDS011;61320;52.008;4.530;2022-11-20T10:04:51;33.01;;;32.32;;
73132;SDS011;61320;52.008;4.530;2022-11-20T10:07:36;33.83;;;32.58;;
73132;SDS011;61320;52.008;4.530;2022-11-20T10:10:33;32.01;;;31.37;;
73132;SDS011;61320;52.008;4.530;2022-11-20T10:13:26;33.89;;;32.28;;
73132;SDS011;61320;52.008;4.530;2022-11-20T10:16:01;33.57;;;32.09;;
73132;SDS011;61320;52.008;4.530;2022-11-20T10:18:44;33.55;;;32.37;;
73132;SDS011;61320;52.008;4.530;2022-11-20T10:24:11;32.63;;;31.97;;
73132;SDS011;61320;52.008;4.530;2022-11-20T10:29:35;35.23;;;33.91;;
73132;SDS011;61320;52.008;4.530;2022-11-20T10:32:16;33.53;;;31.95;;
73132;SDS011;61320;52.008;4.530;2022-11-20T10:34:57;33.16;;;31.79;;
73132;SDS011;61320;52.008;4.530;2022-11-20T10:37:44;32.95;;;31.66;;
73132;SDS011;61320;52.008;4.530;2022-11-20T10:43:08;32.35;;;31.18;;
73132;SDS011;61320;52.008;4.530;2022-11-20T10:45:49;31.29;;;30.61;;
73132;SDS011;61320;52.008;4.530;2022-11-20T10:48:23;31.74;;;31.07;;
73132;SDS011;61320;52.008;4.530;2022-11-20T10:50:56;32.01;;;30.99;;
73132;SDS011;61320;52.008;4.530;2022-11-20T10:56:29;33.49;;;32.33;;
73132;SDS011;61320;52.008;4.530;2022-11-20T11:01:41;33.37;;;32.41;;
73132;SDS011;61320;52.008;4.530;2022-11-20T11:04:15;33.59;;;32.41;;
73132;SDS011;61320;52.008;4.530;2022-11-20T11:06:47;34.26;;;33.03;;
73132;SDS011;61320;52.008;4.530;2022-11-20T11:09:16;35.01;;;33.75;;
73132;SDS011;61320;52.008;4.530;2022-11-20T11:11:52;35.93;;;34.30;;
73132;SDS011;61320;52.008;4.530;2022-11-20T11:14:17;36.53;;;34.89;;
73132;SDS011;61320;52.008;4.530;2022-11-20T11:16:53;36.45;;;35.01;;
73132;SDS011;61320;52.008;4.530;2022-11-20T11:19:23;37.37;;;36.26;;
73132;SDS011;61320;52.008;4.530;2022-11-20T11:22:04;36.85;;;35.53;;
73132;SDS011;61320;52.008;4.530;2022-11-20T11:30:52;37.38;;;36.02;;
73132;SDS011;61320;52.008;4.530;2022-11-20T11:33:23;39.01;;;37.63;;
73132;SDS011;61320;52.008;4.530;2022-11-20T11:35:51;38.28;;;36.74;;
73132;SDS011;61320;52.008;4.530;2022-11-20T11:38:34;38.91;;;37.15;;
73132;SDS011;61320;52.008;4.530;2022-11-20T11:41:03;38.99;;;37.52;;
73132;SDS011;61320;52.008;4.530;2022-11-20T11:43:32;38.70;;;37.34;;
73132;SDS011;61320;52.008;4.530;2022-11-20T11:46:25;38.16;;;36.94;;
73132;SDS011;61320;52.008;4.530;2022-11-20T11:51:38;41.12;;;39.41;;
73132;SDS011;61320;52.008;4.530;2022-11-20T11:54:15;42.01;;;40.51;;
73132;SDS011;61320;52.008;4.530;2022-11-20T11:56:49;38.95;;;37.77;;
73132;SDS011;61320;52.008;4.530;2022-11-20T11:59:27;39.45;;;37.92;;
73132;SDS011;61320;52.008;4.530;2022-11-20T12:02:22;38.11;;;36.47;;
73132;SDS011;61320;52.008;4.530;2022-11-20T12:04:59;36.20;;;34.98;;
73132;SDS011;61320;52.008;4.530;2022-11-20T12:07:37;37.37;;;36.08;;
73132;SDS011;61320;52.008;4.530;2022-11-20T12:10:33;38.68;;;37.37;;
73132;SDS011;61320;52.008;4.530;2022-11-20T12:13:14;41.83;;;40.35;;
73132;SDS011;61320;52.008;4.530;2022-11-20T12:16:04;39.59;;;38.15;;
73132;SDS011;61320;52.008;4.530;2022-11-20T12:18:29;39.59;;;38.21;;
73132;SDS011;61320;52.008;4.530;2022-11-20T12:21:00;39.85;;;38.09;;
73132;SDS011;61320;52.008;4.530;2022-11-20T12:23:52;38.65;;;37.01;;
73132;SDS011;61320;52.008;4.530;2022-11-20T12:29:21;40.17;;;38.94;;
73132;SDS011;61320;52.008;4.530;2022-11-20T12:32:20;43.90;;;42.36;;
73132;SDS011;61320;52.008;4.530;2022-11-20T12:37:45;49.39;;;47.78;;
73132;SDS011;61320;52.008;4.530;2022-11-20T12:40:50;39.63;;;38.34;;
73132;SDS011;61320;52.008;4.530;2022-11-20T12:43:26;42.62;;;41.21;;
73132;SDS011;61320;52.008;4.530;2022-11-20T12:51:56;42.51;;;41.05;;
73132;SDS011;61320;52.008;4.530;2022-11-20T13:00:42;39.33;;;38.15;;
73132;SDS011;61320;52.008;4.530;2022-11-20T13:03:54;41.63;;;40.55;;
73132;SDS011;61320;52.008;4.530;2022-11-20T13:06:21;40.70;;;39.66;;
73132;SDS011;61320;52.008;4.530;2022-11-20T13:08:53;41.63;;;40.23;;
73132;SDS011;61320;52.008;4.530;2022-11-20T13:11:30;42.60;;;41.04;;
73132;SDS011;61320;52.008;4.530;2022-11-20T13:19:14;43.29;;;41.70;;
73132;SDS011;61320;52.008;4.530;2022-11-20T13:21:43;43.03;;;41.48;;
73132;SDS011;61320;52.008;4.530;2022-11-20T13:27:33;45.15;;;43.55;;
73132;SDS011;61320;52.008;4.530;2022-11-20T13:29:34;45.33;;;43.89;;
73132;SDS011;61320;52.008;4.530;2022-11-20T13:32:22;47.08;;;45.63;;
73132;SDS011;61320;52.008;4.530;2022-11-20T13:34:55;46.84;;;45.50;;
73132;SDS011;61320;52.008;4.530;2022-11-20T13:40:21;54.12;;;53.09;;
73132;SDS011;61320;52.008;4.530;2022-11-20T13:45:29;50.57;;;49.25;;
73132;SDS011;61320;52.008;4.530;2022-11-20T13:47:58;55.34;;;53.78;;
73132;SDS011;61320;52.008;4.530;2022-11-20T13:50:40;48.77;;;47.39;;
73132;SDS011;61320;52.008;4.530;2022-11-20T13:53:22;48.52;;;46.94;;
73132;SDS011;61320;52.008;4.530;2022-11-20T13:56:08;47.38;;;45.98;;
73132;SDS011;61320;52.008;4.530;2022-11-20T14:01:33;48.23;;;46.74;;
73132;SDS011;61320;52.008;4.530;2022-11-20T14:04:08;46.62;;;45.22;;
73132;SDS011;61320;52.008;4.530;2022-11-20T14:06:43;53.14;;;51.69;;
73132;SDS011;61320;52.008;4.530;2022-11-20T14:09:33;58.73;;;56.74;;
73132;SDS011;61320;52.008;4.530;2022-11-20T14:11:59;54.87;;;53.62;;
73132;SDS011;61320;52.008;4.530;2022-11-20T14:14:29;51.17;;;49.92;;
73132;SDS011;61320;52.008;4.530;2022-11-20T14:17:09;49.11;;;47.40;;
73132;SDS011;61320;52.008;4.530;2022-11-20T14:19:44;50.54;;;48.59;;
73132;SDS011;61320;52.008;4.530;2022-11-20T14:22:17;49.86;;;48.45;;
73132;SDS011;61320;52.008;4.530;2022-11-20T14:24:45;48.54;;;47.23;;
73132;SDS011;61320;52.008;4.530;2022-11-20T14:27:12;46.34;;;44.83;;
73132;SDS011;61320;52.008;4.530;2022-11-20T14:29:43;45.84;;;44.09;;
73132;SDS011;61320;52.008;4.530;2022-11-20T14:32:14;47.30;;;45.19;;
73132;SDS011;61320;52.008;4.530;2022-11-20T14:37:55;50.62;;;49.31;;
73132;SDS011;61320;52.008;4.530;2022-11-20T14:43:30;49.63;;;48.52;;
73132;SDS011;61320;52.008;4.530;2022-11-20T14:46:07;52.52;;;50.84;;
73132;SDS011;61320;52.008;4.530;2022-11-20T14:48:38;51.03;;;49.55;;
73132;SDS011;61320;52.008;4.530;2022-11-20T14:56:39;81.25;;;79.48;;
73132;SDS011;61320;52.008;4.530;2022-11-20T14:59:08;78.93;;;77.17;;
73132;SDS011;61320;52.008;4.530;2022-11-20T15:01:34;57.80;;;56.26;;
73132;SDS011;61320;52.008;4.530;2022-11-20T15:06:55;50.19;;;48.65;;
73132;SDS011;61320;52.008;4.530;2022-11-20T15:09:27;48.29;;;46.55;;
73132;SDS011;61320;52.008;4.530;2022-11-20T15:15:10;45.24;;;43.38;;
73132;SDS011;61320;52.008;4.530;2022-11-20T15:17:40;43.03;;;41.38;;
73132;SDS011;61320;52.008;4.530;2022-11-20T15:20:34;44.91;;;43.04;;
73132;SDS011;61320;52.008;4.530;2022-11-20T15:25:48;48.55;;;46.86;;
73132;SDS011;61320;52.008;4.530;2022-11-20T15:28:45;45.95;;;44.15;;
73132;SDS011;61320;52.008;4.530;2022-11-20T15:31:15;61.88;;;59.12;;
73132;SDS011;61320;52.008;4.530;2022-11-20T15:33:44;50.02;;;48.51;;
73132;SDS011;61320;52.008;4.530;2022-11-20T15:36:13;51.24;;;49.85;;
73132;SDS011;61320;52.008;4.530;2022-11-20T15:38:53;48.56;;;47.19;;
73132;SDS011;61320;52.008;4.530;2022-11-20T15:41:19;44.43;;;43.08;;
73132;SDS011;61320;52.008;4.530;2022-11-20T15:43:47;44.89;;;43.70;;
73132;SDS011;61320;52.008;4.530;2022-11-20T15:46:13;44.52;;;43.07;;
73132;SDS011;61320;52.008;4.530;2022-11-20T15:48:59;47.94;;;46.78;;
73132;SDS011;61320;52.008;4.530;2022-11-20T16:02:47;57.87;;;56.44;;
73132;SDS011;61320;52.008;4.530;2022-11-20T16:05:32;47.75;;;46.98;;
73132;SDS011;61320;52.008;4.530;2022-11-20T16:10:56;50.26;;;49.18;;
73132;SDS011;61320;52.008;4.530;2022-11-20T16:13:30;46.49;;;45.77;;
73132;SDS011;61320;52.008;4.530;2022-11-20T16:16:27;40.98;;;40.14;;
73132;SDS011;61320;52.008;4.530;2022-11-20T16:19:12;37.42;;;36.60;;
73132;SDS011;61320;52.008;4.530;2022-11-20T16:21:42;37.61;;;36.89;;
73132;SDS011;61320;52.008;4.530;2022-11-20T16:26:54;36.83;;;35.95;;
73132;SDS011;61320;52.008;4.530;2022-11-20T16:29:25;36.26;;;35.56;;
73132;SDS011;61320;52.008;4.530;2022-11-20T16:31:57;35.59;;;34.82;;